Time;durP1;ratioP1;P1;durP2;ratioP2;P2;SDS_P1;SDS_P2;PMS_P1;PMS_P2;Temp;Humidity;BMP_temperature;BMP_pressure;BME280_temperature;BME280_humidity;BME280_pressure;Samples;Min_cycle;Max_cycle;Signal;HPM_P1;HPM_P2
2023/08/23 00:01:40;;;;;;;4.32;3.90;;;18.20;99.90;;;;;;5048356;28;20037;-77
2023/08/23 00:04:06;;;;;;;4.10;3.70;;;18.20;99.90;;;;;;5048594;28;20021;-78
2023/08/23 00:06:31;;;;;;;5.30;3.97;;;18.20;99.90;;;;;;5048515;28;20029;-77
2023/08/23 00:08:57;;;;;;;4.78;3.78;;;18.10;99.90;;;;;;5048577;28;20386;-77
2023/08/23 00:11:22;;;;;;;4.63;3.38;;;18.10;99.90;;;;;;5052439;28;20025;-79
2023/08/23 00:13:48;;;;;;;4.55;4.15;;;18.10;99.90;;;;;;5052476;28;20132;-78
2023/08/23 00:16:13;;;;;;;5.22;3.53;;;18.10;99.90;;;;;;5050960;28;20083;-78
2023/08/23 00:18:39;;;;;;;5.25;4.18;;;18.00;99.90;;;;;;5052515;28;20066;-77
2023/08/23 00:21:05;;;;;;;4.20;3.40;;;18.00;99.90;;;;;;5050585;28;20136;-78
2023/08/23 00:23:31;;;;;;;4.15;3.50;;;18.00;99.90;;;;;;5052575;28;20390;-78
2023/08/23 00:25:56;;;;;;;4.72;3.35;;;18.00;99.90;;;;;;5052519;28;20017;-77
2023/08/23 00:28:22;;;;;;;4.90;3.55;;;17.90;99.90;;;;;;5052338;28;20112;-77
2023/08/23 00:30:51;;;;;;;4.65;3.55;;;17.90;99.90;;;;;;5052980;28;20422;-77
2023/08/23 00:33:17;;;;;;;5.25;3.67;;;17.90;99.90;;;;;;5053662;28;20024;-78
2023/08/23 00:35:43;;;;;;;4.63;3.13;;;18.00;99.90;;;;;;5052763;28;20029;-78
2023/08/23 00:38:08;;;;;;;5.65;3.70;;;17.90;99.90;;;;;;5051872;28;20409;-78
2023/08/23 00:40:34;;;;;;;4.28;3.25;;;17.90;99.90;;;;;;5052232;28;20044;-78
2023/08/23 00:43:00;;;;;;;3.95;3.17;;;17.90;99.90;;;;;;5054298;28;20028;-77
2023/08/23 00:45:27;;;;;;;4.22;3.67;;;17.90;99.90;;;;;;5052609;28;20025;-77
2023/08/23 00:47:52;;;;;;;5.22;3.42;;;17.90;99.90;;;;;;5054383;28;20021;-77
2023/08/23 00:50:18;;;;;;;4.30;3.70;;;17.90;99.90;;;;;;5059263;28;20316;-77
2023/08/23 00:52:43;;;;;;;5.38;3.55;;;17.80;99.90;;;;;;5058134;28;20091;-77
2023/08/23 00:55:09;;;;;;;4.07;3.63;;;17.80;99.90;;;;;;5062459;28;20016;-78
2023/08/23 00:57:35;;;;;;;5.05;4.38;;;17.80;99.90;;;;;;5065653;28;20029;-77
2023/08/23 01:00:01;;;;;;;4.28;3.88;;;17.80;99.90;;;;;;5071192;28;20024;-78
2023/08/23 01:02:27;;;;;;;4.68;4.25;;;17.80;99.90;;;;;;5060223;28;20021;-78
2023/08/23 01:04:52;;;;;;;6.68;4.10;;;17.80;99.90;;;;;;5056109;28;20032;-78
2023/08/23 01:07:29;;;;;;;4.60;3.35;;;17.80;99.90;;;;;;5060134;28;20083;-78
2023/08/23 01:10:04;;;;;;;3.67;3.10;;;17.80;99.90;;;;;;5070830;28;20021;-78
2023/08/23 01:12:43;;;;;;;2.72;2.47;;;17.80;99.90;;;;;;5055720;28;20103;-78
2023/08/23 01:15:12;;;;;;;3.72;3.42;;;17.80;99.90;;;;;;5069407;28;20025;-78
2023/08/23 01:17:43;;;;;;;2.97;2.72;;;17.80;99.90;;;;;;5043492;28;20029;-78
2023/08/23 01:20:16;;;;;;;3.83;3.40;;;17.70;99.90;;;;;;5049825;28;20035;-78
2023/08/23 01:22:48;;;;;;;3.50;2.97;;;17.70;99.90;;;;;;5050363;28;20029;-78
2023/08/23 01:25:14;;;;;;;3.30;3.00;;;17.70;99.90;;;;;;5047270;28;20052;-78
2023/08/23 01:27:39;;;;;;;3.65;3.35;;;17.70;99.90;;;;;;5041191;28;20056;-78
2023/08/23 01:30:05;;;;;;;3.97;2.75;;;17.70;99.90;;;;;;5050123;28;20102;-78
2023/08/23 01:32:40;;;;;;;4.18;3.72;;;17.60;99.90;;;;;;5050428;28;20036;-77
2023/08/23 01:35:29;;;;;;;4.88;3.33;;;17.60;99.90;;;;;;5050177;28;20458;-77
2023/08/23 01:37:58;;;;;;;3.72;3.42;;;17.60;99.90;;;;;;5051033;28;20140;-77
2023/08/23 01:40:24;;;;;;;3.72;3.40;;;17.60;99.90;;;;;;5050749;28;20017;-77
2023/08/23 01:42:50;;;;;;;5.28;3.50;;;17.50;99.90;;;;;;5050017;28;20021;-78
2023/08/23 01:45:16;;;;;;;5.07;4.25;;;17.50;99.90;;;;;;5051138;28;20017;-78
2023/08/23 01:47:42;;;;;;;4.85;4.10;;;17.50;99.90;;;;;;5050027;28;20039;-78
2023/08/23 01:50:08;;;;;;;5.45;3.88;;;17.50;99.90;;;;;;5058164;28;20020;-78
2023/08/23 01:52:33;;;;;;;5.50;3.88;;;17.50;99.90;;;;;;5064702;28;20047;-78
2023/08/23 01:54:59;;;;;;;4.80;3.70;;;17.50;99.90;;;;;;5059690;28;20032;-77
2023/08/23 01:57:24;;;;;;;5.38;3.95;;;17.50;99.90;;;;;;5049307;28;20036;-78
2023/08/23 01:59:50;;;;;;;4.75;4.28;;;17.50;99.90;;;;;;5058937;28;20033;-77
2023/08/23 02:02:16;;;;;;;5.13;3.60;;;17.40;99.90;;;;;;5062712;28;20070;-77
2023/08/23 02:04:41;;;;;;;4.18;3.78;;;17.50;99.90;;;;;;5058112;28;20025;-78
2023/08/23 02:07:07;;;;;;;5.82;3.55;;;17.40;99.90;;;;;;5058389;28;20588;-78
2023/08/23 02:09:33;;;;;;;4.28;3.88;;;17.40;99.90;;;;;;5048926;28;20035;-78
2023/08/23 02:11:59;;;;;;;3.78;3.40;;;17.40;99.90;;;;;;5050078;28;20033;-78
2023/08/23 02:14:25;;;;;;;4.35;3.90;;;17.40;99.90;;;;;;5061809;28;20025;-77
2023/08/23 02:16:51;;;;;;;3.45;3.15;;;17.30;99.90;;;;;;5049130;28;20040;-77
2023/08/23 02:19:16;;;;;;;4.05;3.53;;;17.30;99.90;;;;;;5061323;28;20373;-77
2023/08/23 02:21:42;;;;;;;4.00;3.17;;;17.20;99.90;;;;;;5062417;28;20036;-77
2023/08/23 02:24:07;;;;;;;4.60;3.75;;;17.20;99.90;;;;;;5051013;28;20167;-77
2023/08/23 02:26:36;;;;;;;3.30;3.00;;;17.20;99.90;;;;;;5049431;28;20108;-77
2023/08/23 02:29:02;;;;;;;3.45;3.10;;;17.20;99.90;;;;;;5049232;28;20013;-77
2023/08/23 02:31:28;;;;;;;2.83;2.63;;;17.20;99.90;;;;;;5048299;28;20025;-77
2023/08/23 02:33:54;;;;;;;4.68;3.03;;;17.20;99.90;;;;;;5049528;28;20389;-77
2023/08/23 02:36:20;;;;;;;3.45;2.95;;;17.20;99.90;;;;;;5062091;28;20067;-77
2023/08/23 02:38:45;;;;;;;3.40;2.53;;;17.10;99.90;;;;;;5062040;28;20529;-77
2023/08/23 02:41:11;;;;;;;4.28;2.50;;;17.10;99.90;;;;;;5048479;28;20025;-77
2023/08/23 02:43:36;;;;;;;3.00;2.60;;;17.10;99.90;;;;;;5048782;28;20028;-77
2023/08/23 02:46:02;;;;;;;4.88;2.60;;;17.10;99.90;;;;;;5048281;28;20013;-77
2023/08/23 02:48:29;;;;;;;2.58;2.13;;;17.00;99.90;;;;;;5049277;28;20021;-76
2023/08/23 02:50:55;;;;;;;3.92;2.67;;;17.00;99.90;;;;;;5062061;28;20032;-77
2023/08/23 02:53:20;;;;;;;3.88;2.88;;;17.00;99.90;;;;;;5048589;28;20048;-77
2023/08/23 02:55:46;;;;;;;3.60;2.78;;;17.00;99.90;;;;;;5049913;28;20029;-77
2023/08/23 02:58:11;;;;;;;4.85;3.10;;;16.90;99.90;;;;;;5048895;28;20064;-77
2023/08/23 03:00:37;;;;;;;3.20;2.90;;;16.90;99.90;;;;;;5048245;28;20025;-77
2023/08/23 03:03:03;;;;;;;4.97;3.20;;;16.90;99.90;;;;;;5049101;28;20048;-77
2023/08/23 03:05:29;;;;;;;3.10;2.78;;;16.90;99.90;;;;;;5049387;28;20239;-77
2023/08/23 03:07:54;;;;;;;6.03;3.15;;;16.90;99.90;;;;;;5048663;28;20071;-77
2023/08/23 03:10:20;;;;;;;3.80;2.65;;;16.90;99.90;;;;;;5048819;28;20472;-77
2023/08/23 03:12:45;;;;;;;2.83;2.63;;;16.90;99.90;;;;;;5049449;28;20028;-77
2023/08/23 03:15:11;;;;;;;3.92;3.35;;;16.90;99.90;;;;;;5047561;28;20037;-77
2023/08/23 03:17:37;;;;;;;3.58;3.22;;;17.00;99.90;;;;;;5049026;28;20132;-77
2023/08/23 03:20:03;;;;;;;3.67;3.00;;;17.00;99.90;;;;;;5049285;28;20048;-77
2023/08/23 03:22:29;;;;;;;3.42;3.13;;;17.00;99.90;;;;;;5048618;28;20057;-77
2023/08/23 03:24:54;;;;;;;4.38;3.42;;;17.00;99.90;;;;;;5049595;28;20397;-77
2023/08/23 03:27:21;;;;;;;3.50;3.20;;;17.00;99.90;;;;;;5036569;28;20154;-77
2023/08/23 03:29:47;;;;;;;4.13;3.05;;;17.10;99.90;;;;;;5072130;28;20060;-77
2023/08/23 03:32:14;;;;;;;2.95;2.70;;;17.00;99.90;;;;;;5052873;28;20055;-77
2023/08/23 03:34:39;;;;;;;2.80;2.60;;;17.00;99.90;;;;;;5057274;28;20378;-77
2023/08/23 03:37:06;;;;;;;5.88;3.10;;;17.00;99.90;;;;;;5052725;28;20096;-77
2023/08/23 03:39:31;;;;;;;3.15;2.65;;;16.90;99.90;;;;;;5054357;28;20052;-77
2023/08/23 03:41:57;;;;;;;3.22;2.88;;;16.90;99.90;;;;;;5052976;28;20060;-77
2023/08/23 03:44:22;;;;;;;3.17;2.88;;;16.80;99.90;;;;;;5051486;28;20040;-77
2023/08/23 03:46:48;;;;;;;4.53;3.00;;;16.80;99.90;;;;;;5048241;28;20037;-77
2023/08/23 03:49:14;;;;;;;4.05;3.13;;;16.80;99.90;;;;;;5054051;28;20036;-77
2023/08/23 03:51:39;;;;;;;3.40;2.72;;;16.70;99.90;;;;;;5060288;28;20028;-77
2023/08/23 03:54:05;;;;;;;3.08;2.75;;;16.70;99.90;;;;;;5066276;28;20033;-77
2023/08/23 03:56:30;;;;;;;3.40;3.00;;;16.70;99.90;;;;;;5061055;28;20067;-77
2023/08/23 03:58:57;;;;;;;4.07;3.72;;;16.70;99.90;;;;;;5047527;28;20025;-77
2023/08/23 04:01:22;;;;;;;4.13;3.58;;;16.70;99.90;;;;;;5047651;28;20527;-78
2023/08/23 04:03:48;;;;;;;5.50;4.20;;;16.70;99.90;;;;;;5048307;28;20129;-77
2023/08/23 04:06:13;;;;;;;3.63;3.28;;;16.60;99.90;;;;;;5048406;28;20032;-77
2023/08/23 04:08:39;;;;;;;3.65;3.35;;;16.60;99.90;;;;;;5047760;28;20581;-77
2023/08/23 04:11:04;;;;;;;4.10;3.72;;;16.60;99.90;;;;;;5048532;28;20100;-77
2023/08/23 04:13:30;;;;;;;3.58;3.28;;;16.60;99.90;;;;;;5047527;28;20475;-78
2023/08/23 04:15:56;;;;;;;3.90;2.92;;;16.60;99.90;;;;;;5048185;28;20017;-77
2023/08/23 04:18:21;;;;;;;3.85;3.55;;;16.60;99.90;;;;;;5047889;28;20044;-77
2023/08/23 04:20:57;;;;;;;4.68;3.53;;;16.60;99.90;;;;;;5048436;28;20032;-77
2023/08/23 04:23:22;;;;;;;3.67;3.33;;;16.50;99.90;;;;;;5048323;28;20039;-77
2023/08/23 04:25:48;;;;;;;3.80;3.50;;;16.50;99.90;;;;;;5048406;28;20088;-77
2023/08/23 04:28:13;;;;;;;2.97;2.78;;;16.60;99.90;;;;;;5048136;28;20032;-77
2023/08/23 04:30:42;;;;;;;3.72;3.10;;;16.50;99.90;;;;;;5035275;28;20544;-77
2023/08/23 04:33:08;;;;;;;3.63;3.10;;;16.50;99.90;;;;;;5047296;28;20029;-77
2023/08/23 04:35:33;;;;;;;3.95;3.65;;;16.60;99.90;;;;;;5048204;28;20412;-77
2023/08/23 04:37:59;;;;;;;4.18;2.80;;;16.60;99.90;;;;;;5048440;28;20054;-77
2023/08/23 04:40:24;;;;;;;3.88;3.40;;;16.60;99.90;;;;;;5048010;28;20092;-77
2023/08/23 04:42:50;;;;;;;4.40;3.75;;;16.60;99.90;;;;;;5047753;28;20045;-77
2023/08/23 04:45:15;;;;;;;5.00;3.58;;;16.60;99.90;;;;;;5047691;28;20013;-77
2023/08/23 04:47:41;;;;;;;4.22;3.83;;;16.50;99.90;;;;;;5047295;28;20025;-77
2023/08/23 04:50:07;;;;;;;5.20;4.80;;;16.50;99.90;;;;;;5054930;28;20457;-77
2023/08/23 04:52:32;;;;;;;6.57;4.18;;;16.60;99.90;;;;;;5061778;28;20115;-77
2023/08/23 04:54:58;;;;;;;4.18;3.78;;;16.60;99.90;;;;;;5048865;28;20029;-77
2023/08/23 04:57:23;;;;;;;4.72;3.95;;;16.50;99.90;;;;;;5050561;28;20041;-77
2023/08/23 04:59:49;;;;;;;4.57;4.18;;;16.50;99.90;;;;;;5051173;28;20060;-77
2023/08/23 05:02:14;;;;;;;6.97;3.80;;;16.50;99.90;;;;;;5051003;28;20025;-77
2023/08/23 05:04:40;;;;;;;4.70;4.25;;;16.60;99.90;;;;;;5050827;28;20362;-77
2023/08/23 05:07:06;;;;;;;4.00;3.70;;;16.50;99.90;;;;;;5051425;28;20025;-76
2023/08/23 05:09:31;;;;;;;8.73;4.82;;;16.60;99.90;;;;;;5050736;28;20032;-77
2023/08/23 05:11:57;;;;;;;6.28;4.38;;;16.60;99.90;;;;;;5051281;28;20031;-77
2023/08/23 05:14:23;;;;;;;5.60;5.10;;;16.70;99.90;;;;;;5052991;28;20117;-77
2023/08/23 05:16:48;;;;;;;4.80;4.38;;;16.70;99.90;;;;;;5065595;28;20028;-77
2023/08/23 05:19:14;;;;;;;4.47;4.07;;;16.70;99.90;;;;;;5060996;28;20087;-77
2023/08/23 05:21:39;;;;;;;6.90;5.28;;;16.70;99.90;;;;;;5055528;28;20508;-79
2023/08/23 05:24:05;;;;;;;5.72;5.22;;;16.80;99.90;;;;;;5057726;28;20103;-77
2023/08/23 05:26:30;;;;;;;6.55;5.78;;;16.80;99.90;;;;;;5064843;28;20528;-77
2023/08/23 05:28:56;;;;;;;6.90;5.65;;;16.80;99.90;;;;;;5060084;28;20477;-77
2023/08/23 05:31:22;;;;;;;6.93;5.50;;;16.90;99.90;;;;;;5060005;28;20028;-77
2023/08/23 05:33:47;;;;;;;6.78;5.38;;;16.90;99.90;;;;;;5055182;28;20547;-77
2023/08/23 05:36:13;;;;;;;6.78;6.07;;;16.90;99.90;;;;;;5058154;28;20397;-77
2023/08/23 05:38:38;;;;;;;6.72;6.13;;;16.90;99.90;;;;;;5053909;28;20033;-75
2023/08/23 05:41:04;;;;;;;7.57;6.60;;;17.00;99.90;;;;;;5055536;28;20440;-75
2023/08/23 05:43:29;;;;;;;6.93;6.25;;;17.00;99.90;;;;;;5055360;28;20055;-75
2023/08/23 05:45:56;;;;;;;8.27;7.35;;;17.10;99.90;;;;;;5075476;28;20461;-74
2023/08/23 05:48:22;;;;;;;7.93;6.95;;;17.10;99.90;;;;;;5055398;28;20436;-75
2023/08/23 05:50:49;;;;;;;9.77;7.07;;;17.10;99.90;;;;;;5064366;28;20033;-75
2023/08/23 05:53:20;;;;;;;8.10;7.13;;;17.20;99.90;;;;;;5054236;28;20045;-75
2023/08/23 05:55:49;;;;;;;8.90;8.10;;;17.20;99.90;;;;;;5049430;28;20405;-76
2023/08/23 05:58:18;;;;;;;9.07;8.23;;;17.30;99.90;;;;;;5068366;28;20032;-75
2023/08/23 06:00:45;;;;;;;9.38;8.48;;;17.30;99.90;;;;;;5058173;28;20478;-76
2023/08/23 06:03:14;;;;;;;10.02;9.10;;;17.40;99.90;;;;;;5063840;28;20032;-76
2023/08/23 06:05:41;;;;;;;9.63;8.73;;;17.40;99.90;;;;;;5066269;28;20063;-76
2023/08/23 06:08:06;;;;;;;12.90;9.52;;;17.40;99.90;;;;;;5055977;28;20028;-76
2023/08/23 06:10:32;;;;;;;10.85;9.32;;;17.50;99.90;;;;;;5067061;28;20020;-76
2023/08/23 06:12:57;;;;;;;11.45;10.35;;;17.50;99.90;;;;;;5068694;28;20031;-76
2023/08/23 06:15:23;;;;;;;11.13;10.13;;;17.50;99.90;;;;;;5065464;28;20123;-76
2023/08/23 06:17:49;;;;;;;12.40;11.18;;;17.60;99.90;;;;;;5067731;28;20411;-76
2023/08/23 06:20:16;;;;;;;11.85;10.85;;;17.60;99.90;;;;;;5062085;28;20044;-76
2023/08/23 06:22:43;;;;;;;11.38;10.27;;;17.70;99.90;;;;;;5066314;28;20070;-76
2023/08/23 06:25:09;;;;;;;11.55;9.23;;;17.70;99.90;;;;;;5065854;28;20179;-76
2023/08/23 06:27:35;;;;;;;11.25;9.70;;;17.80;99.90;;;;;;5068124;28;20501;-76
2023/08/23 06:30:02;;;;;;;14.45;10.85;;;17.80;99.90;;;;;;5066359;28;20031;-76
2023/08/23 06:32:28;;;;;;;13.35;12.05;;;17.90;99.90;;;;;;5068308;28;20012;-76
2023/08/23 06:34:53;;;;;;;12.85;11.02;;;17.90;99.90;;;;;;5067583;28;20094;-76
2023/08/23 06:37:19;;;;;;;15.27;11.82;;;17.90;99.90;;;;;;5068096;28;20479;-76
2023/08/23 06:39:44;;;;;;;11.77;10.65;;;18.00;99.90;;;;;;5058458;28;20028;-76
2023/08/23 06:42:10;;;;;;;12.32;11.07;;;18.10;99.90;;;;;;5063333;28;20120;-76
2023/08/23 06:44:35;;;;;;;12.65;11.43;;;18.10;99.90;;;;;;5066028;28;20035;-76
2023/08/23 06:47:01;;;;;;;13.27;11.82;;;18.10;99.90;;;;;;5057470;28;20028;-76
2023/08/23 06:49:27;;;;;;;12.75;10.55;;;18.20;99.90;;;;;;5067016;28;20020;-76
2023/08/23 06:51:52;;;;;;;12.85;11.40;;;18.20;99.90;;;;;;5068231;28;20036;-76
2023/08/23 06:54:18;;;;;;;10.35;9.35;;;18.30;99.90;;;;;;5053818;28;20521;-77
2023/08/23 06:56:46;;;;;;;11.43;10.25;;;18.30;99.90;;;;;;5048881;28;20021;-76
2023/08/23 06:59:12;;;;;;;12.23;10.63;;;18.40;99.90;;;;;;5047628;28;20037;-76
2023/08/23 07:01:37;;;;;;;11.18;9.98;;;18.40;99.90;;;;;;5047240;28;20033;-76
2023/08/23 07:04:03;;;;;;;11.45;10.32;;;18.50;99.90;;;;;;5065548;28;20031;-77
2023/08/23 07:06:31;;;;;;;11.30;9.43;;;18.50;99.90;;;;;;5056298;28;20020;-77
2023/08/23 07:08:57;;;;;;;13.60;11.68;;;18.60;99.90;;;;;;5052681;28;20040;-77
2023/08/23 07:11:22;;;;;;;12.95;10.98;;;18.70;99.90;;;;;;5066203;28;20055;-77
2023/08/23 07:13:48;;;;;;;11.95;10.32;;;18.70;99.90;;;;;;5058179;28;20188;-76
2023/08/23 07:16:13;;;;;;;11.85;10.70;;;18.80;99.90;;;;;;5057254;28;20151;-77
2023/08/23 07:18:39;;;;;;;14.25;10.98;;;18.90;99.90;;;;;;5058396;28;20036;-76
2023/08/23 07:21:05;;;;;;;11.80;10.38;;;19.00;99.90;;;;;;5055877;28;20021;-76
2023/08/23 07:23:30;;;;;;;10.65;9.52;;;19.00;99.90;;;;;;5058623;28;20028;-75
2023/08/23 07:25:56;;;;;;;10.48;9.45;;;19.10;99.90;;;;;;5056486;28;20029;-76
2023/08/23 07:28:21;;;;;;;10.88;9.57;;;19.20;99.90;;;;;;5058913;28;20136;-76
2023/08/23 07:30:56;;;;;;;12.50;10.55;;;19.30;99.90;;;;;;5054497;28;20090;-75
2023/08/23 07:33:25;;;;;;;11.05;9.95;;;19.30;99.90;;;;;;5055635;28;20087;-76
2023/08/23 07:35:58;;;;;;;11.60;10.52;;;19.40;99.90;;;;;;5054334;28;20082;-75
2023/08/23 07:38:24;;;;;;;12.65;11.35;;;19.50;99.90;;;;;;5050902;28;20025;-76
2023/08/23 07:40:50;;;;;;;11.20;10.25;;;19.60;99.90;;;;;;5059018;28;20081;-76
2023/08/23 07:43:16;;;;;;;10.43;9.48;;;19.70;99.90;;;;;;5056588;28;20021;-75
2023/08/23 07:45:41;;;;;;;10.77;9.70;;;19.70;99.90;;;;;;5074330;28;20035;-75
2023/08/23 07:48:07;;;;;;;11.15;10.05;;;19.80;99.90;;;;;;5051955;28;20052;-78
2023/08/23 07:50:32;;;;;;;12.38;9.95;;;19.90;99.90;;;;;;5064309;28;20389;-78
2023/08/23 07:52:58;;;;;;;12.90;9.50;;;20.00;99.90;;;;;;5050111;28;20037;-79
2023/08/23 07:55:23;;;;;;;11.73;10.45;;;20.00;99.90;;;;;;5062760;28;20024;-78
2023/08/23 07:57:49;;;;;;;13.25;9.75;;;20.20;99.90;;;;;;5047506;28;20517;-78
2023/08/23 08:00:15;;;;;;;10.80;9.70;;;20.30;99.90;;;;;;5047486;28;20117;-77
2023/08/23 08:02:40;;;;;;;10.35;9.43;;;20.30;99.90;;;;;;5046927;28;20026;-78
2023/08/23 08:05:07;;;;;;;11.27;8.73;;;20.40;99.90;;;;;;5046899;28;20092;-77
2023/08/23 08:07:33;;;;;;;10.52;8.38;;;20.50;99.90;;;;;;5047604;28;20018;-75
2023/08/23 08:09:58;;;;;;;9.15;8.30;;;20.60;99.90;;;;;;5047586;28;20511;-78
2023/08/23 08:12:24;;;;;;;11.15;9.93;;;20.70;99.90;;;;;;5065918;28;20016;-77
2023/08/23 08:14:50;;;;;;;10.70;9.48;;;20.80;99.90;;;;;;5061309;28;20041;-77
2023/08/23 08:17:15;;;;;;;9.88;8.85;;;20.80;99.90;;;;;;5050170;28;20036;-76
2023/08/23 08:19:41;;;;;;;8.75;7.88;;;20.90;99.90;;;;;;5056325;28;20036;-76
2023/08/23 08:22:06;;;;;;;10.25;7.93;;;20.90;99.90;;;;;;5051353;28;20547;-76
2023/08/23 08:24:32;;;;;;;9.05;8.05;;;21.00;99.90;;;;;;5046038;28;20037;-76
2023/08/23 08:26:58;;;;;;;10.85;8.73;;;21.10;99.90;;;;;;5045789;28;20061;-76
2023/08/23 08:29:23;;;;;;;7.80;7.00;;;21.20;99.90;;;;;;5048164;28;20027;-76
2023/08/23 08:31:50;;;;;;;8.80;7.18;;;21.20;99.90;;;;;;5052439;28;20485;-76
2023/08/23 08:34:17;;;;;;;7.10;6.25;;;21.30;99.90;;;;;;5051639;28;20041;-76
2023/08/23 08:36:43;;;;;;;10.88;7.88;;;21.40;99.90;;;;;;5052390;28;20021;-76
2023/08/23 08:39:08;;;;;;;8.10;6.32;;;21.40;99.90;;;;;;5067154;28;20028;-76
2023/08/23 08:41:34;;;;;;;7.63;6.55;;;21.50;99.90;;;;;;5051589;28;21339;-76
2023/08/23 08:44:00;;;;;;;7.93;6.18;;;21.60;99.90;;;;;;5051753;28;20021;-76
2023/08/23 08:46:26;;;;;;;8.38;7.60;;;21.60;99.90;;;;;;5063419;28;20428;-76
2023/08/23 08:48:52;;;;;;;10.82;8.07;;;21.70;99.90;;;;;;5049533;28;20025;-76
2023/08/23 08:51:20;;;;;;;9.05;7.78;;;21.70;99.90;;;;;;5054983;28;20035;-76
2023/08/23 08:53:52;;;;;;;7.15;6.45;;;21.80;99.90;;;;;;5070325;28;20048;-75
2023/08/23 08:56:19;;;;;;;8.60;6.20;;;21.80;99.90;;;;;;5051571;28;20078;-76
2023/08/23 08:58:48;;;;;;;6.78;5.90;;;21.90;99.90;;;;;;5051772;28;20060;-76
2023/08/23 09:01:14;;;;;;;7.45;6.75;;;21.90;99.90;;;;;;5051203;28;20021;-76
2023/08/23 09:03:41;;;;;;;6.53;5.88;;;22.00;99.80;;;;;;5050879;28;20021;-76
2023/08/23 09:06:07;;;;;;;7.07;5.38;;;22.00;99.60;;;;;;5051039;28;20458;-76
2023/08/23 09:08:34;;;;;;;8.13;5.32;;;22.10;99.50;;;;;;5066260;28;20025;-76
2023/08/23 09:10:59;;;;;;;6.07;5.57;;;22.20;99.40;;;;;;5051329;28;20487;-76
2023/08/23 09:13:25;;;;;;;6.25;5.18;;;22.20;99.10;;;;;;5050126;28;20037;-77
2023/08/23 09:15:51;;;;;;;6.82;5.75;;;22.30;98.80;;;;;;5050700;28;20032;-76
2023/08/23 09:18:20;;;;;;;5.55;4.95;;;22.30;98.60;;;;;;5050199;28;20029;-77
2023/08/23 09:20:46;;;;;;;7.13;5.05;;;22.40;98.40;;;;;;5048958;28;20029;-76
2023/08/23 09:23:11;;;;;;;5.38;4.65;;;22.40;98.30;;;;;;5050149;28;20021;-76
2023/08/23 09:25:37;;;;;;;5.13;4.53;;;22.50;98.00;;;;;;5050061;28;20354;-77
2023/08/23 09:28:03;;;;;;;5.70;5.05;;;22.50;97.60;;;;;;5063218;28;20032;-76
2023/08/23 09:30:29;;;;;;;4.95;4.22;;;22.50;97.30;;;;;;5048701;28;20037;-76
2023/08/23 09:32:57;;;;;;;5.22;4.72;;;22.60;97.30;;;;;;5049541;28;20083;-76
2023/08/23 09:35:23;;;;;;;5.28;3.92;;;22.60;97.00;;;;;;5040385;28;20017;-76
2023/08/23 09:37:49;;;;;;;4.50;3.67;;;22.70;97.00;;;;;;5050042;28;20090;-76
2023/08/23 09:40:19;;;;;;;5.53;4.72;;;22.80;96.80;;;;;;5050732;28;20024;-76
2023/08/23 09:42:45;;;;;;;4.55;4.03;;;22.90;96.30;;;;;;5057752;28;20035;-77
2023/08/23 09:45:18;;;;;;;5.40;4.53;;;22.90;96.00;;;;;;5056894;28;20021;-77
2023/08/23 09:47:55;;;;;;;4.05;3.33;;;23.00;95.60;;;;;;5058189;28;20059;-76
2023/08/23 09:50:22;;;;;;;7.10;3.28;;;23.00;95.00;;;;;;5055533;28;20424;-76
2023/08/23 09:53:03;;;;;;;7.13;4.72;;;23.10;95.00;;;;;;5057035;28;20099;-76
2023/08/23 09:55:31;;;;;;;4.90;3.40;;;23.20;94.80;;;;;;5049402;28;20091;-76
2023/08/23 09:57:58;;;;;;;5.22;3.85;;;23.20;94.90;;;;;;5053565;28;20477;-77
2023/08/23 10:00:27;;;;;;;6.38;4.70;;;23.30;94.90;;;;;;5052313;28;20029;-76
2023/08/23 10:02:53;;;;;;;5.50;4.93;;;23.30;94.80;;;;;;5052591;28;20021;-76
2023/08/23 10:05:19;;;;;;;4.93;3.80;;;23.40;94.70;;;;;;5058734;28;20493;-76
2023/08/23 10:07:45;;;;;;;4.28;1.70;;;23.50;94.50;;;;;;5056321;28;20068;-76
2023/08/23 10:10:10;;;;;;;2.10;1.50;;;23.60;93.90;;;;;;5054088;28;20056;-76
2023/08/23 10:12:41;;;;;;;3.20;2.00;;;23.60;93.70;;;;;;5053154;28;20029;-76
2023/08/23 10:15:09;;;;;;;4.50;2.45;;;23.60;93.30;;;;;;5053506;28;20028;-76
2023/08/23 10:17:36;;;;;;;3.30;2.33;;;23.70;93.20;;;;;;5053339;28;20543;-76
2023/08/23 10:20:08;;;;;;;4.00;2.58;;;23.70;93.00;;;;;;5054098;28;20467;-76
2023/08/23 10:22:34;;;;;;;4.13;2.92;;;23.80;93.20;;;;;;5052716;28;20040;-76
2023/08/23 10:25:00;;;;;;;5.53;3.25;;;23.90;93.00;;;;;;5055644;28;20029;-76
2023/08/23 10:27:25;;;;;;;3.33;2.70;;;23.90;92.90;;;;;;5050758;28;20035;-76
2023/08/23 10:29:51;;;;;;;5.10;3.50;;;23.90;92.60;;;;;;5054648;28;20721;-76
2023/08/23 10:32:17;;;;;;;5.45;3.28;;;24.00;92.40;;;;;;5051914;28;20485;-76
2023/08/23 10:34:43;;;;;;;3.33;2.22;;;24.10;92.30;;;;;;5055161;28;20469;-76
2023/08/23 10:37:15;;;;;;;2.50;1.55;;;24.00;92.20;;;;;;5051991;28;20496;-76
2023/08/23 10:39:49;;;;;;;2.97;1.50;;;24.10;92.00;;;;;;5055488;28;20024;-76
2023/08/23 10:42:18;;;;;;;5.32;2.10;;;24.20;91.70;;;;;;5052457;28;20017;-76
2023/08/23 10:44:59;;;;;;;2.45;1.77;;;24.20;91.90;;;;;;5053775;28;20385;-75
2023/08/23 10:47:26;;;;;;;3.17;1.85;;;24.20;91.70;;;;;;5053677;28;20049;-75
2023/08/23 10:49:52;;;;;;;3.80;1.90;;;24.30;91.50;;;;;;5052841;28;20032;-75
2023/08/23 10:52:17;;;;;;;2.63;1.70;;;24.30;91.10;;;;;;5048976;28;20056;-77
2023/08/23 10:54:43;;;;;;;2.60;1.17;;;24.30;91.20;;;;;;5064984;28;20256;-77
2023/08/23 10:57:09;;;;;;;2.90;1.42;;;24.30;91.10;;;;;;5075481;28;20060;-74
2023/08/23 10:59:35;;;;;;;3.17;1.45;;;24.30;91.20;;;;;;5061878;28;20027;-75
2023/08/23 11:02:01;;;;;;;4.88;1.90;;;24.40;91.20;;;;;;5061066;28;20107;-75
2023/08/23 11:04:27;;;;;;;2.78;1.75;;;24.40;91.10;;;;;;5057153;28;20096;-76
2023/08/23 11:06:53;;;;;;;3.42;1.88;;;24.40;90.80;;;;;;5056619;28;20028;-76
2023/08/23 11:09:19;;;;;;;2.33;1.50;;;24.50;90.80;;;;;;5057166;28;20032;-75
2023/08/23 11:11:44;;;;;;;2.92;1.80;;;24.50;90.70;;;;;;5076209;28;20377;-75
2023/08/23 11:14:10;;;;;;;3.08;1.20;;;24.50;90.80;;;;;;5055726;28;20020;-76
2023/08/23 11:16:38;;;;;;;2.55;1.23;;;24.50;90.60;;;;;;5061042;28;20386;-73
2023/08/23 11:19:05;;;;;;;3.13;1.10;;;24.50;90.40;;;;;;5062437;28;20081;-74
2023/08/23 11:21:35;;;;;;;2.53;1.08;;;24.50;90.00;;;;;;5066432;28;20031;-75
2023/08/23 11:24:05;;;;;;;1.45;0.65;;;24.60;90.10;;;;;;5063536;28;20522;-75
2023/08/23 11:26:35;;;;;;;2.60;1.08;;;24.60;90.20;;;;;;5066642;28;20048;-74
2023/08/23 11:29:02;;;;;;;1.98;0.80;;;24.60;90.00;;;;;;5064619;28;20016;-73
2023/08/23 11:31:29;;;;;;;2.25;1.20;;;24.60;90.00;;;;;;5054947;28;20122;-75
2023/08/23 11:33:56;;;;;;;2.55;1.10;;;24.60;89.30;;;;;;5065563;28;20028;-74
2023/08/23 11:36:22;;;;;;;4.43;0.90;;;24.60;89.40;;;;;;5065144;28;20021;-74
2023/08/23 11:38:48;;;;;;;2.10;1.10;;;24.60;89.90;;;;;;5068907;28;20036;-77
2023/08/23 11:41:14;;;;;;;6.07;1.15;;;24.60;90.00;;;;;;5052558;28;20351;-73
2023/08/23 11:43:47;;;;;;;1.98;1.30;;;24.60;90.00;;;;;;5053699;28;20025;-76
2023/08/23 11:46:12;;;;;;;3.33;1.25;;;24.60;90.00;;;;;;5054262;28;20021;-75
2023/08/23 11:48:38;;;;;;;3.78;1.63;;;24.60;89.70;;;;;;5068397;28;20029;-74
2023/08/23 11:51:05;;;;;;;2.80;1.20;;;24.70;89.80;;;;;;5049941;28;20068;-76
2023/08/23 11:53:31;;;;;;;3.65;1.08;;;24.70;90.00;;;;;;5056380;28;20036;-76
2023/08/23 11:55:57;;;;;;;2.05;0.95;;;24.70;89.60;;;;;;5065913;28;20029;-77
2023/08/23 11:58:23;;;;;;;2.67;1.00;;;24.80;89.50;;;;;;5054807;28;20075;-76
2023/08/23 12:00:50;;;;;;;2.25;0.90;;;24.80;89.30;;;;;;5067906;28;20473;-77
2023/08/23 12:03:16;;;;;;;2.22;1.10;;;24.80;89.50;;;;;;5059509;28;20013;-77
2023/08/23 12:05:42;;;;;;;1.33;0.80;;;24.90;89.20;;;;;;5049324;28;20028;-75
2023/08/23 12:08:07;;;;;;;2.90;0.98;;;24.90;89.10;;;;;;5051348;28;20021;-78
2023/08/23 12:10:33;;;;;;;2.10;1.10;;;25.00;88.70;;;;;;5052958;28;20108;-77
2023/08/23 12:12:59;;;;;;;3.58;0.95;;;25.00;88.30;;;;;;5067026;28;20053;-77
2023/08/23 12:15:24;;;;;;;2.28;1.10;;;25.10;88.30;;;;;;5057680;28;20025;-78
2023/08/23 12:17:52;;;;;;;2.38;0.80;;;25.10;87.60;;;;;;5052721;28;20768;-77
2023/08/23 12:20:18;;;;;;;1.92;0.95;;;25.10;87.50;;;;;;5062025;28;20043;-77
2023/08/23 12:22:47;;;;;;;4.55;1.30;;;25.10;87.60;;;;;;5057760;28;20062;-78
2023/08/23 12:25:13;;;;;;;4.28;1.30;;;25.10;88.80;;;;;;5054705;28;20025;-79
2023/08/23 12:27:39;;;;;;;2.45;0.85;;;25.20;87.90;;;;;;5064542;28;20051;-77
2023/08/23 12:30:06;;;;;;;3.40;1.63;;;25.10;87.90;;;;;;5067062;28;20025;-77
2023/08/23 12:32:31;;;;;;;2.45;1.33;;;25.20;87.80;;;;;;5068032;28;20024;-78
2023/08/23 12:34:57;;;;;;;1.67;0.98;;;25.20;87.10;;;;;;5065652;28;20159;-77
2023/08/23 12:37:23;;;;;;;2.58;1.20;;;25.20;86.90;;;;;;5057416;28;20029;-77
2023/08/23 12:39:49;;;;;;;1.40;0.90;;;25.20;86.40;;;;;;5062608;28;20021;-77